Tiempo atmosférico en la estación meteorológica de Forua, Bizkaia (45 m.)



Fecha
DESCASC
Temp. máxima en grados centígrados (hora)
DESCASC
Temp. mínima en grados centígrados (hora)
DESCASC
Temp. media en grados centígrados
DESCASC
Racha de viento máxima en m/sg (hora)
DESCASC
Velocidad máxima media en intervalos de 10 minutos(hora)
DESCASC
Precipitaciones diarias en mm
DESCASC
Precipitaciones de 00:00 a 06:00 en mm
DESCASC
Precipitaciones de 06:00 a 12:00 en mm
DESCASC
Precipitaciones de 12:00 a 18:00 en mm
DESCASC
Precipitaciones de 18:00 a 24:00 en mm
DESCASC
26-11-2020 19.4 (11:50) 9.1 (02:20) 14.3 9.72 (13:10) 5 (13:10) 0 0 0 0 0
25-11-2020 16.5 (15:30) 9 (23:20) 12.8 10 (02:20) 6.67 (02:10) 0 0 0 0 0
24-11-2020 17.6 (15:40) 3.7 (04:30) 10.7 7.78 (11:30) 5 (11:20) 0.2 0 0.2 0 0
23-11-2020 15.6 (13:40) 3.7 (08:30) 9.7 3.89 (16:00) 2.78 (16:00) 0 0 0 0 0
22-11-2020 17.7 (14:40) 1.8 (00:00) 9.8 4.17 (07:00) 3.33 (07:00) 0.2 0 0.2 0 0
21-11-2020 12.7 (13:00) 1.9 (00:00) 7.3 6.39 (15:10) 3.89 (14:50) 0 0 0 0 0
20-11-2020 14.4 (12:30) 5.1 (00:00) 9.7 6.11 (13:30) 3.61 (13:30) 0.4 0 0.4 0 0
19-11-2020 14.1 (07:40) 10 (00:00) 12.1 8.89 (08:10) 5 (08:00) 2.6 0 2.2 0 0.4
18-11-2020 24.5 (15:20) 11.1 (00:00) 17.8 8.61 (00:50) 5 (00:30) 0 0 0 0 0
17-11-2020 19.9 (15:50) 5.3 (00:00) 12.6 5.28 (23:59) 3.06 (23:59) 0.2 0.2 0 0 0
16-11-2020 16.5 (14:20) 7.7 (00:00) 12.1 5.28 (00:10) 2.78 (00:50) 2.6 0.4 2.2 0 0
15-11-2020 23.2 (13:20) 13.2 (00:00) 18.2 12.22 (14:20) 8.06 (14:10) 2.2 0 0 0 2.2
14-11-2020 20.8 (15:30) 12.9 (00:00) 16.8 13.33 (12:50) 8.33 (12:50) 0 0 0 0 0
13-11-2020 21.1 (15:20) 11.1 (00:00) 16.1 7.5 (04:50) 5 (23:59) 0 0 0 0 0
12-11-2020 22.1 (14:10) 9.9 (00:00) 16 5 (16:00) 3.06 (15:30) 0 0 0 0 0
11-11-2020 20.6 (15:10) 7.2 (00:00) 13.9 11.11 (14:50) 6.11 (15:20) 0.2 0.2 0 0 0
10-11-2020 17.2 (13:40) 8.9 (00:00) 13.1 3.89 (14:10) 2.5 (05:40) 3.2 3 0.2 0 0
09-11-2020 22.3 (15:20) 10.7 (00:00) 16.5 8.33 (00:20) 5.83 (00:50) 0 0 0 0 0
08-11-2020 21.7 (14:30) 12.6 (00:00) 17.2 10.83 (11:30) 6.11 (11:40) 0 0 0 0 0
07-11-2020 20.9 (00:00) 12.6 (00:00) 16.8 13.33 (07:00) 8.89 (07:00) 19.6 0 19.6 0 0
06-11-2020 22.2 (11:10) 12.4 (00:00) 17.3 18.33 (19:30) 9.17 (19:30) 0 0 0 0 0
05-11-2020 16.3 (13:00) 5.6 (00:00) 10.9 8.89 (15:30) 4.44 (15:40) 0 0 0 0 0
04-11-2020 13.5 (13:00) 7.4 (00:00) 10.5 10 (15:00) 3.89 (15:00) 3.6 1.6 2 0 0
03-11-2020 13.6 (15:40) 8.4 (00:00) 11 9.44 (13:10) 5 (13:10) 12.6 5.6 2.2 3 1.8
02-11-2020 26 (14:30) 12.7 (00:00) 19.3 16.67 (14:50) 10.83 (14:50) 1.6 0 0 0 1.6
01-11-2020 25 (13:30) 14.2 (00:00) 19.6 7.78 (21:40) 4.72 (11:40) 0 0 0 0 0
31-10-2020 25.6 (16:00) 8.6 (00:00) 17.1 9.72 (11:50) 6.11 (11:50) 0 0 0 0 0
30-10-2020 18.9 (12:40) 6.5 (00:00) 12.7 6.67 (14:10) 4.72 (14:20) 0.2 0 0.2 0 0
29-10-2020 21.7 (14:00) 8.9 (00:00) 15.3 7.22 (16:00) 3.89 (16:00) 0 0 0 0 0
28-10-2020 17.8 (14:00) 10.5 (00:00) 14.1 6.11 (13:00) 3.06 (13:10) 0.2 0 0.2 0 0

Gráficas

Temp. máximas Temp. mínimas Temp. medias Precipitaciones Rachas de viento máximas Velocidades máximas media en intervalos de 10 minutos

Datos horarios

Fecha y hora oficial Temperatura (ºC) Velocidad del viento (km/h) Dirección del viento Racha (km/h) Dirección de racha Precipitación (mm) Presión (hPa) Tendencia (hPa) Humedad (%)
2020-11-26 23:00:00 16 6 Sudoeste 24 Oeste 0 -- -- 64
2020-11-26 22:00:00 15.4 5 Oeste 16 Sur 0 -- -- 66
2020-11-26 21:00:00 13.9 2 Noroeste 14 Oeste 0 -- -- 74
2020-11-26 20:00:00 14.4 3 Oeste 15 Sudoeste 0 -- -- 73
2020-11-26 19:00:00 14.4 2 Nordeste 6 Norte 0 -- -- 72
2020-11-26 18:00:00 15.9 3 Sudeste 13 Sudeste 0 -- -- 65
2020-11-26 17:00:00 16.6 8 Sudoeste 13 Sudoeste 0 -- -- 64
2020-11-26 16:00:00 17.7 5 Sur 23 Sudoeste 0 -- -- 61
2020-11-26 15:00:00 17.8 9 Sudoeste 23 Sudoeste 0 -- -- 59
2020-11-26 14:00:00 17.8 12 Sudoeste 35 Sudoeste 0 -- -- 58
2020-11-26 13:00:00 18.6 15 Sudoeste 26 Sudoeste 0 -- -- 56
2020-11-26 12:00:00 19.3 9 Sur 24 Sudeste 0 -- -- 54
2020-11-26 11:00:00 16.8 4 Sudoeste 10 Sur 0 -- -- 61
2020-11-26 10:00:00 15.7 5 Sudoeste 25 Sudoeste 0 -- -- 62
2020-11-26 09:00:00 14.9 5 Sudoeste 23 Sudoeste 0 -- -- 63
2020-11-26 08:00:00 14.1 5 Oeste 15 Sur 0 -- -- 66
2020-11-26 07:00:00 13.8 4 Sudoeste 26 Sudoeste 0 -- -- 65
2020-11-26 06:00:00 14.1 15 Sudoeste 29 Sudoeste 0 -- -- 65
2020-11-26 05:00:00 13.2 12 Sudoeste 22 Sudoeste 0 -- -- 70
2020-11-26 04:00:00 11.2 9 Sudoeste 16 Oeste 0 -- -- 77
2020-11-26 03:00:00 9.2 5 Nordeste 10 Oeste 0 -- -- 80
2020-11-26 02:00:00 10.9 5 Sudoeste 10 Sudoeste 0 -- -- 75
2020-11-26 01:00:00 10.7 0 Calma 10 Oeste 0 -- -- 74
2020-11-26 00:00:00 10.2 4 Sudoeste 8 Sudoeste 0 -- -- 76
2020-11-25 23:00:00 11.1 6 Oeste 13 Sudoeste 0 -- -- 71
2020-11-25 22:00:00 9.7 0 Calma 6 Sudeste 0 -- -- 78
2020-11-25 21:00:00 9.1 0 Calma 6 Norte 0 -- -- 82
2020-11-25 20:00:00 10 2 Nordeste 11 Sudoeste 0 -- -- 78
2020-11-25 19:00:00 11.8 6 Oeste 9 Oeste 0 -- -- 70
2020-11-25 18:00:00 13.2 5 Sudoeste 13 Sudoeste 0 -- -- 64
2020-11-25 17:00:00 14.9 10 Sudoeste 27 Sudoeste 0 -- -- 59
2020-11-25 16:00:00 16.4 12 Sudoeste 26 Sudoeste 0 -- -- 55
2020-11-25 15:00:00 16.3 14 Sudoeste 34 Sudoeste 0 -- -- 54
2020-11-25 14:00:00 16.1 18 Sudoeste 30 Sudoeste 0 -- -- 56
2020-11-25 13:00:00 16.1 18 Sudoeste 28 Sudoeste 0 -- -- 57
2020-11-25 12:00:00 15.2 17 Sudoeste 32 Oeste 0 -- -- 61
2020-11-25 11:00:00 13.8 14 Oeste 33 Oeste 0 -- -- 67
2020-11-25 10:00:00 12.4 23 Oeste 36 Oeste 0 -- -- 69
2020-11-25 09:00:00 10.9 11 Oeste 27 Oeste 0 -- -- 72
2020-11-25 08:00:00 10.9 21 Oeste 28 Oeste 0 -- -- 72
2020-11-25 07:00:00 10.7 14 Oeste 24 Oeste 0 -- -- 73
2020-11-25 06:00:00 10 8 Sudoeste 18 Sudoeste 0 -- -- 73
2020-11-25 05:00:00 10.4 8 Sur 17 Sudoeste 0 -- -- 71
2020-11-25 04:00:00 10.7 7 Sur 18 Oeste 0 -- -- 68
2020-11-25 03:00:00 12.3 6 Sur 36 Oeste 0 -- -- 62
2020-11-25 02:00:00 12.9 22 Oeste 34 Oeste 0 -- -- 61
2020-11-25 01:00:00 11.5 12 Oeste 18 Oeste 0 -- -- 66
2020-11-25 00:00:00 10.7 5 Sudeste 13 Sudoeste 0 -- -- 66
2020-11-24 23:00:00 10.7 8 Sudoeste 23 Oeste 0 -- -- 67
2020-11-24 22:00:00 10.4 14 Oeste 20 Oeste 0 -- -- 71
2020-11-24 21:00:00 10.4 6 Sudoeste 8 Sudoeste 0 -- -- 74
2020-11-24 20:00:00 9.6 8 Sudoeste 11 Sudoeste 0 -- -- 84
2020-11-24 19:00:00 10.9 6 Sudoeste 9 Sudoeste 0 -- -- 80
2020-11-24 18:00:00 13.5 3 Nordeste 6 Nordeste 0 -- -- 70
2020-11-24 17:00:00 16.8 2 Oeste 9 Sudoeste 0 -- -- 55
2020-11-24 16:00:00 17.4 5 Oeste 13 Oeste 0 -- -- 49
2020-11-24 15:00:00 16.5 10 Oeste 18 Oeste 0 -- -- 54
2020-11-24 14:00:00 17.3 9 Sudoeste 19 Oeste 0 -- -- 50
2020-11-24 13:00:00 15.3 12 Oeste 27 Oeste 0 -- -- 56
2020-11-24 12:00:00 15.2 18 Oeste 28 Oeste 0 -- -- 52
2020-11-24 11:00:00 14.4 15 Sudoeste 26 Oeste 0 -- -- 54
2020-11-24 10:00:00 11.9 13 Sudoeste 22 Oeste 0 -- -- 61
2020-11-24 09:00:00 9 7 Sur 16 Sudoeste 0 -- -- 71
2020-11-24 08:00:00 7.8 10 Sudoeste 18 Sudoeste 0.2 -- -- 79
2020-11-24 07:00:00 4 6 Sudoeste 16 Sudoeste 0 -- -- 99
2020-11-24 06:00:00 4.2 10 Sudoeste 13 Sudoeste 0 -- -- 99
2020-11-24 05:00:00 3.9 8 Sudoeste 11 Sudoeste 0 -- -- 100
2020-11-24 04:00:00 3.9 9 Sudoeste 11 Oeste 0 -- -- 100
2020-11-24 03:00:00 4.3 5 Oeste 12 Sudoeste 0 -- -- 99
2020-11-24 02:00:00 4.7 9 Sudoeste 12 Sudoeste 0 -- -- 99
2020-11-24 01:00:00 5.3 3 Sudoeste 10 Sudoeste 0 -- -- 99
2020-11-24 00:00:00 5.8 7 Sudoeste 9 Sudoeste 0 -- -- 98
2020-11-23 23:00:00 6.1 4 Sudoeste 10 Sudoeste 0 -- -- 97
2020-11-23 22:00:00 7.1 5 Sudoeste 6 Sudoeste 0 -- -- 97
2020-11-23 21:00:00 7.7 3 Sur 8 Sudoeste 0 -- -- 96
2020-11-23 20:00:00 8.9 4 Oeste 5 Oeste 0 -- -- 93
2020-11-23 19:00:00 10.2 3 Norte 9 Nordeste 0 -- -- 89
2020-11-23 18:00:00 11.4 6 Nordeste 10 Nordeste 0 -- -- 84
2020-11-23 17:00:00 13.1 7 Norte 12 Norte 0 -- -- 77
2020-11-23 16:00:00 15 10 Norte 14 Norte 0 -- -- 74
2020-11-23 15:00:00 15.3 9 Norte 13 Norte 0 -- -- 72
2020-11-23 14:00:00 15.4 7 Nordeste 13 Nordeste 0 -- -- 73
2020-11-23 13:00:00 15 0 Calma 5 Norte 0 -- -- 73
2020-11-23 12:00:00 12.7 2 Oeste 6 Oeste 0 -- -- 81
2020-11-23 11:00:00 9.9 4 Sur 12 Sudoeste 0 -- -- 96
2020-11-23 10:00:00 6.5 8 Sudoeste 12 Sudoeste 0 -- -- 100
2020-11-23 09:00:00 4.8 7 Sudoeste 10 Sudoeste 0 -- -- 100
2020-11-23 08:00:00 4.4 8 Sudoeste 12 Sudoeste 0 -- -- 100
2020-11-23 07:00:00 4.8 8 Sudoeste 10 Sudoeste 0 -- -- 100
2020-11-23 06:00:00 5.3 6 Sudoeste 10 Sudoeste 0 -- -- 99
2020-11-23 05:00:00 5.6 2 Sudoeste 14 Sudoeste 0 -- -- 99
2020-11-23 04:00:00 5.7 9 Sudoeste 12 Sudoeste 0 -- -- 99
2020-11-23 03:00:00 6.5 4 Sudoeste 9 Sudoeste 0 -- -- 99
2020-11-23 02:00:00 6.5 5 Sudoeste 9 Sur 0 -- -- 98
2020-11-23 01:00:00 6.5 8 Sudoeste 12 Sudoeste 0 -- -- 98
2020-11-23 00:00:00 6.5 6 Sudoeste 9 Sudoeste 0 -- -- 98
2020-11-22 23:00:00 6.4 4 Sudoeste 9 Oeste 0 -- -- 97
2020-11-22 22:00:00 6.6 5 Sudoeste 9 Sudoeste 0 -- -- 96
2020-11-22 21:00:00 7.2 5 Sudoeste 10 Sudoeste 0 -- -- 94
2020-11-22 20:00:00 8.1 2 Sudoeste 10 Oeste 0 -- -- 91
2020-11-22 19:00:00 9.8 5 Sudoeste 9 Sudoeste 0 -- -- 84
2020-11-22 18:00:00 12.3 2 Norte 5 Norte 0 -- -- 76
2020-11-22 17:00:00 15 3 Norte 10 Norte 0 -- -- 67
2020-11-22 16:00:00 16.6 6 Norte 9 Norte 0 -- -- 61
2020-11-22 15:00:00 17.4 3 Nordeste 10 Norte 0 -- -- 50
2020-11-22 14:00:00 17 6 Norte 13 Noroeste 0 -- -- 49
2020-11-22 13:00:00 15.6 0 Calma 8 Sudoeste 0 -- -- 59
2020-11-22 12:00:00 13.4 4 Sudoeste 9 Sudoeste 0 -- -- 64
2020-11-22 11:00:00 9.9 4 Sur 10 Sudoeste 0 -- -- 86
2020-11-22 10:00:00 6.3 4 Sudoeste 10 Sudoeste 0 -- -- 93
2020-11-22 09:00:00 3.2 8 Sudoeste 13 Sudoeste 0 -- -- 99
2020-11-22 08:00:00 2.1 10 Sudoeste 15 Sudoeste 0 -- -- 99
2020-11-22 07:00:00 2.1 12 Sudoeste 15 Oeste 0.2 -- -- 100
2020-11-22 06:00:00 2.1 6 Sudoeste 13 Sudoeste 0 -- -- 99
2020-11-22 05:00:00 2 9 Oeste 10 Sudoeste 0 -- -- 99
2020-11-22 04:00:00 2.2 5 Sudoeste 13 Sudoeste 0 -- -- 99
2020-11-22 03:00:00 2.6 9 Sudoeste 14 Sudoeste 0 -- -- 99
2020-11-22 02:00:00 2.4 8 Sudoeste 12 Sudoeste 0 -- -- 98
2020-11-22 01:00:00 2.6 7 Sudoeste 10 Sudoeste 0 -- -- 98
2020-11-22 00:00:00 3.2 4 Sudoeste 11 Oeste 0 -- -- 98
2020-11-21 23:00:00 3.4 8 Sudoeste 11 Sudoeste 0 -- -- 97
2020-11-21 22:00:00 4.3 5 Sudoeste 8 Sudoeste 0 -- -- 96
2020-11-21 21:00:00 4.9 6 Oeste 8 Sudoeste 0 -- -- 94
2020-11-21 20:00:00 6.6 3 Oeste 6 Oeste 0 -- -- 89
2020-11-21 19:00:00 8 0 Calma 6 Este 0 -- -- 84
2020-11-21 18:00:00 9.5 4 Nordeste 10 Sudeste 0 -- -- 77
2020-11-21 17:00:00 11.2 7 Este 18 Este 0 -- -- 69
2020-11-21 16:00:00 11.9 9 Este 23 Este 0 -- -- 67
2020-11-21 15:00:00 12.1 12 Este 22 Este 0 -- -- 66
2020-11-21 14:00:00 12.5 10 Este 15 Este 0 -- -- 64
2020-11-21 13:00:00 12.7 6 Nordeste 15 Norte 0 -- -- 62
2020-11-21 12:00:00 11 3 Nordeste 5 Norte 0 -- -- 75
2020-11-21 11:00:00 8 3 Sudoeste 10 Sudoeste 0 -- -- 99
2020-11-21 10:00:00 4.7 7 Sudoeste 10 Sudoeste 0 -- -- 100
2020-11-21 09:00:00 2.3 4 Sudoeste 10 Sudoeste 0 -- -- 100
2020-11-21 08:00:00 2 8 Sudoeste 10 Sudoeste 0 -- -- 100
2020-11-21 07:00:00 2 8 Oeste 10 Oeste 0 -- -- 100
2020-11-21 06:00:00 2.6 4 Sudoeste 10 Sudoeste 0 -- -- 100
2020-11-21 05:00:00 3 7 Sudoeste 9 Oeste 0 -- -- 99
2020-11-21 04:00:00 3.4 6 Sudoeste 9 Sudoeste 0 -- -- 99
2020-11-21 03:00:00 4.1 3 Sudoeste 9 Oeste 0 -- -- 99
2020-11-21 02:00:00 4.3 5 Sudoeste 9 Sudoeste 0 -- -- 98
2020-11-21 01:00:00 4.9 7 Sudoeste 9 Sudoeste 0 -- -- 98
2020-11-21 00:00:00 5.1 7 Sudoeste 9 Sudoeste 0 -- -- 97
2020-11-20 23:00:00 5.6 6 Sudoeste 12 Oeste 0 -- -- 96
2020-11-20 22:00:00 6.2 9 Sudoeste 11 Oeste 0 -- -- 96
2020-11-20 21:00:00 6.9 2 Oeste 8 Oeste 0 -- -- 95
2020-11-20 20:00:00 7.7 5 Sudoeste 8 Oeste 0 -- -- 89
2020-11-20 19:00:00 9.1 4 Nordeste 7 Norte 0 -- -- 84
2020-11-20 18:00:00 10.5 3 Este 10 Sudeste 0 -- -- 75
2020-11-20 17:00:00 11.9 8 Sudeste 21 Sudeste 0 -- -- 71
2020-11-20 16:00:00 12.2 6 Este 18 Este 0 -- -- 74
2020-11-20 15:00:00 13.5 7 Sudeste 19 Sudeste 0 -- -- 70
2020-11-20 14:00:00 13.8 12 Este 22 Este 0 -- -- 76
2020-11-20 13:00:00 13.5 6 Este 12 Este 0 -- -- 78
2020-11-20 12:00:00 13.5 3 Sudeste 8 Sudeste 0 -- -- 88
2020-11-20 11:00:00 11.9 2 Sudoeste 8 Sudoeste 0 -- -- 100
2020-11-20 10:00:00 9.9 5 Sur 9 Oeste 0 -- -- 100
2020-11-20 09:00:00 8.9 4 Sudoeste 6 Sur 0 -- -- 100
2020-11-20 08:00:00 8.7 6 Sur 13 Oeste 0.4 -- -- 100
2020-11-20 07:00:00 8.4 6 Sur 13 Oeste 0 -- -- 100
2020-11-20 06:00:00 8.6 5 Oeste 8 Sudoeste 0 -- -- 100
2020-11-20 05:00:00 8.6 5 Sudoeste 7 Sudoeste 0 -- -- 100
2020-11-20 04:00:00 8.9 3 Sudoeste 5 Oeste 0 -- -- 99
2020-11-20 03:00:00 9.5 3 Sudoeste 5 Oeste 0 -- -- 99
2020-11-20 02:00:00 9.8 3 Sudoeste 8 Sudoeste 0 -- -- 99
2020-11-20 01:00:00 9.7 4 Sudoeste 8 Sudoeste 0 -- -- 99
2020-11-20 00:00:00 10 5 Sudoeste 8 Oeste 0.2 -- -- 99
2020-11-19 23:00:00 10.1 3 Sur 9 Sudoeste 0 -- -- 99
2020-11-19 22:00:00 10.2 5 Sudoeste 7 Sudoeste 0.2 -- -- 99
2020-11-19 21:00:00 10.4 2 Sudoeste 5 Sudoeste 0 -- -- 98
2020-11-19 20:00:00 10.4 0 Calma 6 Oeste 0 -- -- 98
2020-11-19 19:00:00 10.9 5 Sudoeste 6 Oeste 0 -- -- 97
2020-11-19 18:00:00 11 5 Sudoeste 8 Noroeste 0 -- -- 96
2020-11-19 17:00:00 11.5 6 Nordeste 11 Nordeste 0 -- -- 94
2020-11-19 16:00:00 11.9 8 Nordeste 25 Norte 0 -- -- 93
2020-11-19 15:00:00 13.3 7 Nordeste 15 Nordeste 0 -- -- 85
2020-11-19 14:00:00 13.1 4 Nordeste 18 Nordeste 0 -- -- 91
2020-11-19 13:00:00 12.8 12 Nordeste 19 Nordeste 0 -- -- 94
2020-11-19 12:00:00 12.5 10 Nordeste 20 Norte 0.4 -- -- 97
2020-11-19 11:00:00 13.3 3 Nordeste 12 Nordeste 0 -- -- 97
2020-11-19 10:00:00 13 5 Nordeste 27 Nordeste 0.2 -- -- 98
2020-11-19 09:00:00 13.2 14 Nordeste 32 Nordeste 0.2 -- -- 98
2020-11-19 08:00:00 13.8 18 Nordeste 30 Nordeste 0.8 -- -- 98
2020-11-19 07:00:00 12.6 3 Nordeste 8 Nordeste 0.6 -- -- 95
2020-11-19 06:00:00 12.8 3 Noroeste 9 Sudoeste 0 -- -- 94
2020-11-19 05:00:00 11.9 3 Sudoeste 6 Norte 0 -- -- 96
2020-11-19 04:00:00 11.2 6 Sudoeste 12 Oeste 0 -- -- 97
2020-11-19 03:00:00 10.6 4 Sudoeste 9 Sur 0 -- -- 96
2020-11-19 02:00:00 10.8 7 Sudoeste 12 Oeste 0 -- -- 95
2020-11-19 01:00:00 11.4 8 Sudoeste 11 Oeste 0 -- -- 95
2020-11-19 00:00:00 11.3 8 Sudoeste 11 Sudoeste 0 -- -- 94
2020-11-18 23:00:00 11.7 5 Sudoeste 9 Oeste 0 -- -- 90
2020-11-18 22:00:00 12.1 7 Sudoeste 9 Sudoeste 0 -- -- 90
2020-11-18 21:00:00 12.7 6 Sudoeste 8 Sudoeste 0 -- -- 89
2020-11-18 20:00:00 14.5 3 Nordeste 7 Nordeste 0 -- -- 80
2020-11-18 19:00:00 16.4 5 Nordeste 10 Nordeste 0 -- -- 71
2020-11-18 18:00:00 18.6 4 Norte 11 Nordeste 0 -- -- 59
2020-11-18 17:00:00 20.9 6 Nordeste 14 Nordeste 0 -- -- 53
2020-11-18 16:00:00 22.6 7 Nordeste 15 Sudeste 0 -- -- 58
2020-11-18 15:00:00 24.1 4 Oeste 15 Oeste 0 -- -- 52
2020-11-18 14:00:00 22.8 9 Sudoeste 16 Sudoeste 0 -- -- 55
2020-11-18 13:00:00 23 10 Sudoeste 21 Sudoeste 0 -- -- 54
2020-11-18 12:00:00 22 11 Sudoeste 22 Sudoeste 0 -- -- 57
2020-11-18 11:00:00 20.4 9 Sudoeste 23 Sudoeste 0 -- -- 59
2020-11-18 10:00:00 18.2 8 Sudoeste 16 Sudoeste 0 -- -- 61
2020-11-18 09:00:00 15.8 10 Sudoeste 19 Sudoeste 0 -- -- 64
2020-11-18 08:00:00 15.9 9 Sudoeste 15 Sudoeste 0 -- -- 62
2020-11-18 07:00:00 14.7 8 Sur 15 Sudoeste 0 -- -- 64
2020-11-18 06:00:00 15.1 9 Sudoeste 23 Sudoeste 0 -- -- 63
2020-11-18 05:00:00 15.5 8 Sur 17 Sudoeste 0 -- -- 59
2020-11-18 04:00:00 14.4 9 Sudoeste 23 Sudoeste 0 -- -- 65
2020-11-18 03:00:00 15.1 12 Sudoeste 24 Oeste 0 -- -- 62
2020-11-18 02:00:00 15.3 8 Sur 24 Oeste 0 -- -- 61
2020-11-18 01:00:00 17.3 17 Oeste 31 Sudoeste 0 -- -- 54
2020-11-18 00:00:00 14.2 11 Sudoeste 19 Oeste 0 -- -- 69
2020-11-17 23:00:00 14.7 6 Sur 17 Oeste 0 -- -- 67
2020-11-17 22:00:00 12.3 7 Oeste 12 Sur 0 -- -- 81
2020-11-17 21:00:00 11.2 9 Sudoeste 15 Sudoeste 0 -- -- 92
2020-11-17 20:00:00 12.1 10 Sudoeste 12 Sudoeste 0 -- -- 94
2020-11-17 19:00:00 13.4 6 Oeste 9 Sudoeste 0 -- -- 91
2020-11-17 18:00:00 15.5 5 Sudoeste 6 Sudoeste 0 -- -- 82
2020-11-17 17:00:00 17.8 3 Nordeste 8 Nordeste 0 -- -- 74
2020-11-17 16:00:00 19.7 4 Nordeste 6 Norte 0 -- -- 69
2020-11-17 15:00:00 19.2 2 Este 9 Norte 0 -- -- 67
2020-11-17 14:00:00 18.2 6 Nordeste 9 Norte 0 -- -- 71
2020-11-17 13:00:00 16.9 4 Nordeste 8 Norte 0 -- -- 72
2020-11-17 12:00:00 14.6 0 Calma 4 Sudeste 0 -- -- 79
2020-11-17 11:00:00 12 2 Oeste 5 Oeste 0 -- -- 91
2020-11-17 10:00:00 8.9 3 Sudoeste 8 Sudoeste 0 -- -- 100
2020-11-17 09:00:00 6.1 4 Oeste 9 Oeste 0 -- -- 100
2020-11-17 08:00:00 5.5 7 Oeste 9 Sudoeste 0 -- -- 100
2020-11-17 07:00:00 5.7 6 Sudoeste 8 Oeste 0 -- -- 100
2020-11-17 06:00:00 6 6 Sudoeste 10 Sudoeste 0 -- -- 100
2020-11-17 05:00:00 6 5 Sudoeste 10 Sudoeste 0.2 -- -- 100
2020-11-17 04:00:00 6.5 4 Sudoeste 8 Sudoeste 0 -- -- 99
2020-11-17 03:00:00 6.6 6 Sudoeste 12 Sudoeste 0 -- -- 99
2020-11-17 02:00:00 7.3 6 Oeste 8 Oeste 0 -- -- 99
2020-11-17 01:00:00 7.1 0 Calma 12 Sudoeste 0 -- -- 98
2020-11-17 00:00:00 7.7 7 Sudoeste 8 Oeste 0 -- -- 98
2020-11-16 23:00:00 8.4 3 Oeste 8 Sudoeste 0 -- -- 98
2020-11-16 22:00:00 8.9 6 Sudoeste 7 Oeste 0 -- -- 97
2020-11-16 21:00:00 9.8 4 Sudoeste 5 Sudoeste 0 -- -- 96
2020-11-16 20:00:00 10.6 0 Calma 7 Sudoeste 0 -- -- 94
2020-11-16 19:00:00 12.1 0 Calma 5 Nordeste 0 -- -- 91
2020-11-16 18:00:00 13.5 0 Calma 8 Nordeste 0 -- -- 84
2020-11-16 17:00:00 14.9 5 Este 10 Este 0 -- -- 79
2020-11-16 16:00:00 15.6 3 Este 8 Nordeste 0 -- -- 74
2020-11-16 15:00:00 16.3 3 Oeste 9 Sur 0 -- -- 76
2020-11-16 14:00:00 16.2 0 Calma 12 Oeste 0 -- -- 78
2020-11-16 13:00:00 15.7 8 Noroeste 13 Oeste 0 -- -- 80
2020-11-16 12:00:00 15.1 4 Sudoeste 11 Sudeste 0 -- -- 87
2020-11-16 11:00:00 14.1 4 Sudoeste 10 Sudoeste 0 -- -- 98
2020-11-16 10:00:00 12.5 6 Sudoeste 11 Sudoeste 0.6 -- -- 100
2020-11-16 09:00:00 11.9 3 Oeste 9 Sudoeste 1.6 -- -- 99
2020-11-16 08:00:00 11.8 5 Sudoeste 9 Sudoeste 0 -- -- 98
2020-11-16 07:00:00 11.9 5 Sudoeste 14 Sudoeste 0 -- -- 98
2020-11-16 06:00:00 12.1 5 Sudoeste 12 Sudoeste 0 -- -- 98
2020-11-16 05:00:00 12.3 6 Sudoeste 14 Oeste 0 -- -- 98
2020-11-16 04:00:00 12.6 9 Sudoeste 13 Sudoeste 0 -- -- 97
2020-11-16 03:00:00 12.7 7 Norte 17 Nordeste 0.4 -- -- 96
2020-11-16 02:00:00 13.2 9 Oeste 13 Oeste 0 -- -- 95
2020-11-16 01:00:00 13.2 7 Oeste 19 Noroeste 0 -- -- 95
2020-11-16 00:00:00 13.2 10 Oeste 17 Noroeste 0 -- -- 96
2020-11-15 23:00:00 13.4 7 Oeste 15 Oeste 0.4 -- -- 96
2020-11-15 22:00:00 13.4 6 Oeste 13 Sudoeste 0 -- -- 96
2020-11-15 21:00:00 13.7 4 Sudoeste 12 Nordeste 0 -- -- 96
2020-11-15 20:00:00 13.9 8 Nordeste 16 Nordeste 1 -- -- 96
2020-11-15 19:00:00 14.5 5 Sudeste 14 Norte 0.8 -- -- 95
2020-11-15 18:00:00 15.2 7 Norte 23 Norte 0 -- -- 89
2020-11-15 17:00:00 15.5 12 Norte 23 Noroeste 0 -- -- 86
2020-11-15 16:00:00 16.3 3 Sudeste 31 Nordeste 0 -- -- 90
2020-11-15 15:00:00 17 22 Norte 44 Nordeste 0 -- -- 85
2020-11-15 14:00:00 22.4 15 Noroeste 37 Oeste 0 -- -- 62
2020-11-15 13:00:00 23 14 Sudoeste 35 Oeste 0 -- -- 58
2020-11-15 12:00:00 21.4 21 Oeste 39 Sudoeste 0 -- -- 60
2020-11-15 11:00:00 20.6 20 Sudoeste 33 Sudoeste 0 -- -- 64
2020-11-15 10:00:00 20.1 15 Sudoeste 33 Oeste 0 -- -- 64
2020-11-15 09:00:00 19.5 22 Oeste 39 Oeste 0 -- -- 62
2020-11-15 08:00:00 19.3 27 Oeste 43 Oeste 0 -- -- 62
2020-11-15 07:00:00 18.5 20 Sudoeste 39 Sudoeste 0 -- -- 65
2020-11-15 06:00:00 18.3 15 Sudoeste 34 Sudoeste 0 -- -- 64
2020-11-15 05:00:00 17.3 11 Sudoeste 35 Sudoeste 0 -- -- 66
2020-11-15 04:00:00 18 26 Oeste 38 Oeste 0 -- -- 64
2020-11-15 03:00:00 17.6 11 Sudoeste 35 Oeste 0 -- -- 66
2020-11-15 02:00:00 18 18 Sudoeste 36 Sudoeste 0 -- -- 65
2020-11-15 01:00:00 17 12 Sudoeste 24 Sudoeste 0 -- -- 67
2020-11-15 00:00:00 15.7 6 Sur 19 Sudoeste 0 -- -- 70
2020-11-14 23:00:00 16.7 9 Sudoeste 25 Sudoeste 0 -- -- 66
2020-11-14 22:00:00 17 14 Oeste 23 Sudoeste 0 -- -- 65
2020-11-14 21:00:00 16.7 13 Oeste 26 Sudoeste 0 -- -- 66
2020-11-14 20:00:00 16.2 10 Sudoeste 25 Sudoeste 0 -- -- 67
2020-11-14 19:00:00 17.1 9 Sudoeste 22 Sudoeste 0 -- -- 64
2020-11-14 18:00:00 18.4 9 Sudoeste 22 Oeste 0 -- -- 60
2020-11-14 17:00:00 19.7 15 Sudoeste 28 Sudoeste 0 -- -- 57
2020-11-14 16:00:00 20.5 15 Sudoeste 30 Sudoeste 0 -- -- 55
2020-11-14 15:00:00 20.5 18 Sudoeste 46 Sudoeste 0 -- -- 54
2020-11-14 14:00:00 20.4 28 Sudoeste 48 Sudoeste 0 -- -- 54
2020-11-14 13:00:00 19.8 24 Sudoeste 48 Sudoeste 0 -- -- 56
2020-11-14 12:00:00 19 21 Sudoeste 44 Sudoeste 0 -- -- 56
2020-11-14 11:00:00 17.3 11 Sudoeste 31 Sudoeste 0 -- -- 62
2020-11-14 10:00:00 15.9 17 Sudoeste 35 Oeste 0 -- -- 64
2020-11-14 09:00:00 15 14 Sudoeste 32 Oeste 0 -- -- 66
2020-11-14 08:00:00 14.4 17 Sudoeste 32 Oeste 0 -- -- 67
2020-11-14 07:00:00 14.5 16 Sudoeste 34 Oeste 0 -- -- 67
2020-11-14 06:00:00 14 8 Sudoeste 38 Oeste 0 -- -- 68
2020-11-14 05:00:00 14.7 23 Oeste 35 Oeste 0 -- -- 65
2020-11-14 04:00:00 13.6 6 Sudeste 40 Oeste 0 -- -- 70
2020-11-14 03:00:00 13.6 17 Sudoeste 39 Oeste 0 -- -- 71
2020-11-14 02:00:00 12.9 3 Sudeste 25 Sudoeste 0 -- -- 73
2020-11-14 01:00:00 13.2 17 Sudoeste 26 Oeste 0 -- -- 73
2020-11-14 00:00:00 13.7 18 Oeste 26 Oeste 0 -- -- 72
2020-11-13 23:00:00 11.1 12 Sudoeste 16 Sudoeste 0 -- -- 82
2020-11-13 22:00:00 11.7 5 Sudoeste 8 Sudoeste 0 -- -- 81
2020-11-13 21:00:00 12.9 3 Sudoeste 6 Sur 0 -- -- 75
2020-11-13 20:00:00 12.9 3 Oeste 8 Sur 0 -- -- 80
2020-11-13 19:00:00 14.1 7 Sudoeste 11 Sudoeste 0 -- -- 75
2020-11-13 18:00:00 16.5 3 Sudoeste 9 Sudoeste 0 -- -- 66
2020-11-13 17:00:00 19.8 6 Oeste 9 Oeste 0 -- -- 56
2020-11-13 16:00:00 20.6 6 Oeste 15 Oeste 0 -- -- 54
2020-11-13 15:00:00 21 8 Oeste 18 Oeste 0 -- -- 53
2020-11-13 14:00:00 20.3 11 Oeste 23 Oeste 0 -- -- 56
2020-11-13 13:00:00 19.4 13 Sudoeste 24 Oeste 0 -- -- 57
2020-11-13 12:00:00 19 14 Sudoeste 21 Sudoeste 0 -- -- 56
2020-11-13 11:00:00 17.8 6 Sudoeste 12 Sudoeste 0 -- -- 64
2020-11-13 10:00:00 14.8 5 Sudoeste 9 Sudoeste 0 -- -- 76
2020-11-13 09:00:00 13 6 Oeste 15 Sudoeste 0 -- -- 75
2020-11-13 08:00:00 13.9 9 Sudoeste 17 Oeste 0 -- -- 69
2020-11-13 07:00:00 14.2 4 Sur 18 Oeste 0 -- -- 69
2020-11-13 06:00:00 14.4 10 Sudoeste 22 Sur 0 -- -- 67
2020-11-13 05:00:00 14.9 12 Sudoeste 27 Sudoeste 0 -- -- 65
2020-11-13 04:00:00 14.6 9 Sudoeste 22 Sudoeste 0 -- -- 66
2020-11-13 03:00:00 14.3 12 Oeste 19 Sudoeste 0 -- -- 67
2020-11-13 02:00:00 13.4 5 Sur 13 Sudeste 0 -- -- 69
2020-11-13 01:00:00 13 6 Sudeste 12 Sudeste 0 -- -- 72
2020-11-13 00:00:00 13.8 3 Sur 14 Sudoeste 0 -- -- 68
2020-11-12 23:00:00 12.7 5 Sudoeste 10 Sudoeste 0 -- -- 77
2020-11-12 22:00:00 12.6 5 Sudoeste 11 Sur 0 -- -- 82
2020-11-12 21:00:00 11.7 9 Sudoeste 12 Sudoeste 0 -- -- 94
2020-11-12 20:00:00 12.6 8 Oeste 10 Sudoeste 0 -- -- 91
2020-11-12 19:00:00 14.5 0 Calma 8 Nordeste 0 -- -- 81
2020-11-12 18:00:00 15.6 5 Nordeste 11 Norte 0 -- -- 77
2020-11-12 17:00:00 18.2 9 Norte 16 Nordeste 0 -- -- 66
2020-11-12 16:00:00 19.6 10 Nordeste 18 Norte 0 -- -- 63
2020-11-12 15:00:00 20.3 7 Nordeste 15 Nordeste 0 -- -- 61
2020-11-12 14:00:00 22 3 Oeste 13 Oeste 0 -- -- 51
2020-11-12 13:00:00 20.9 4 Sudoeste 13 Sudoeste 0 -- -- 58
2020-11-12 12:00:00 19 4 Sur 9 Sudoeste 0 -- -- 61
2020-11-12 11:00:00 14.1 0 Calma 6 Sur 0 -- -- 83
2020-11-12 10:00:00 11.6 3 Sur 14 Sudoeste 0 -- -- 88
2020-11-12 09:00:00 10.3 10 Sudoeste 13 Sudoeste 0 -- -- 88
2020-11-12 08:00:00 10 5 Sudoeste 12 Sudoeste 0 -- -- 86
2020-11-12 07:00:00 10.4 6 Sudoeste 9 Sudoeste 0 -- -- 84
2020-11-12 06:00:00 11 8 Sudoeste 12 Sudoeste 0 -- -- 81
2020-11-12 05:00:00 11.8 8 Sudoeste 11 Sudoeste 0 -- -- 79
2020-11-12 04:00:00 12.4 7 Sudoeste 11 Sudoeste 0 -- -- 78
2020-11-12 03:00:00 13 5 Sur 9 Sudoeste 0 -- -- 76
2020-11-12 02:00:00 13.9 5 Sudoeste 12 Sur 0 -- -- 70
2020-11-12 01:00:00 14.4 8 Sudoeste 14 Sudoeste 0 -- -- 68
2020-11-12 00:00:00 14.2 6 Sudoeste 12 Sur 0 -- -- 68
2020-11-11 23:00:00 14.4 5 Sur 18 Sudoeste 0 -- -- 66
2020-11-11 22:00:00 14.9 12 Sudoeste 22 Sudoeste 0 -- -- 65
2020-11-11 21:00:00 15 10 Sudoeste 20 Sur 0 -- -- 64
2020-11-11 20:00:00 15.7 11 Sudoeste 21 Sudoeste 0 -- -- 62
2020-11-11 19:00:00 15.9 9 Sudoeste 19 Sudoeste 0 -- -- 62
2020-11-11 18:00:00 16.5 8 Sudoeste 17 Sudoeste 0 -- -- 60
2020-11-11 17:00:00 18.7 10 Sudoeste 30 Oeste 0 -- -- 54
2020-11-11 16:00:00 19.4 17 Oeste 37 Oeste 0 -- -- 52
2020-11-11 15:00:00 20.3 20 Oeste 40 Oeste 0 -- -- 51
2020-11-11 14:00:00 18 9 Sudoeste 31 Sudoeste 0 -- -- 57
2020-11-11 13:00:00 20 17 Sudoeste 32 Sudoeste 0 -- -- 54
2020-11-11 12:00:00 18.5 13 Sudoeste 26 Sudoeste 0 -- -- 59
2020-11-11 11:00:00 18 15 Sudoeste 29 Sudoeste 0 -- -- 61
2020-11-11 10:00:00 14.3 8 Sudoeste 18 Sudoeste 0 -- -- 79
2020-11-11 09:00:00 11.2 6 Sudoeste 15 Oeste 0 -- -- 89
2020-11-11 08:00:00 9.4 10 Oeste 14 Oeste 0 -- -- 98
2020-11-11 07:00:00 8.9 5 Sur 10 Sur 0 -- -- 100
2020-11-11 06:00:00 7.3 8 Sudoeste 13 Oeste 0 -- -- 100
2020-11-11 05:00:00 7.5 12 Oeste 14 Oeste 0 -- -- 100
2020-11-11 04:00:00 7.4 6 Oeste 8 Oeste 0 -- -- 100
2020-11-11 03:00:00 7.7 4 Sudoeste 12 Sudoeste 0 -- -- 100
2020-11-11 02:00:00 8.1 8 Sudoeste 10 Sudoeste 0.2 -- -- 99
2020-11-11 01:00:00 8.6 7 Sudoeste 10 Sudoeste 0 -- -- 99
2020-11-11 00:00:00 8.9 4 Sudoeste 8 Sudoeste 0 -- -- 99
2020-11-10 23:00:00 9.5 4 Sudoeste 8 Sudoeste 0 -- -- 99
2020-11-10 22:00:00 9.9 5 Sudoeste 9 Oeste 0 -- -- 98
2020-11-10 21:00:00 11.2 0 Calma 4 Norte 0 -- -- 97
2020-11-10 20:00:00 11.8 4 Norte 5 Nordeste 0 -- -- 95
2020-11-10 19:00:00 13.1 2 Este 5 Este 0 -- -- 91
2020-11-10 18:00:00 14.2 2 Norte 6 Este 0 -- -- 88
2020-11-10 17:00:00 15.6 5 Este 13 Este 0 -- -- 81
2020-11-10 16:00:00 16.4 3 Norte 8 Norte 0 -- -- 81
2020-11-10 15:00:00 16.4 2 Este 14 Norte 0 -- -- 77
2020-11-10 14:00:00 17 5 Nordeste 11 Nordeste 0 -- -- 83
2020-11-10 13:00:00 15.7 5 Nordeste 12 Nordeste 0 -- -- 89
2020-11-10 12:00:00 16 0 Calma 4 Noroeste 0 -- -- 95
2020-11-10 11:00:00 14.5 0 Calma 5 Sur 0 -- -- 100
2020-11-10 10:00:00 12.8 0 Calma 9 Sudoeste 0 -- -- 100
2020-11-10 09:00:00 12 6 Oeste 8 Sudoeste 0 -- -- 99
2020-11-10 08:00:00 11.7 4 Sur 8 Oeste 0 -- -- 99
2020-11-10 07:00:00 11.8 4 Sur 9 Oeste 0.2 -- -- 99
2020-11-10 06:00:00 11.8 4 Sur 12 Oeste 0.6 -- -- 98
2020-11-10 05:00:00 11.6 3 Noroeste 5 Oeste 2 -- -- 98
2020-11-10 04:00:00 11.3 3 Sudoeste 11 Sudoeste 0.4 -- -- 97
2020-11-10 03:00:00 11.2 3 Sudoeste 9 Sudoeste 0 -- -- 97
2020-11-10 02:00:00 10.8 2 Sur 7 Sudoeste 0 -- -- 96
2020-11-10 01:00:00 10.7 4 Sudoeste 8 Sudoeste 0 -- -- 95
2020-11-10 00:00:00 10.9 8 Sudoeste 10 Sudoeste 0 -- -- 95
2020-11-09 23:00:00 11.2 8 Sudoeste 10 Sudoeste 0 -- -- 93
2020-11-09 22:00:00 11.9 3 Sudoeste 8 Sudoeste 0 -- -- 91
2020-11-09 21:00:00 12.8 4 Sudoeste 6 Sudoeste 0 -- -- 88
2020-11-09 20:00:00 13.6 6 Oeste 8 Oeste 0 -- -- 86
2020-11-09 19:00:00 14.9 4 Este 10 Norte 0 -- -- 81
2020-11-09 18:00:00 15.9 8 Nordeste 18 Norte 0 -- -- 76
2020-11-09 17:00:00 17.5 10 Norte 18 Norte 0 -- -- 69
2020-11-09 16:00:00 20.2 12 Norte 18 Norte 0 -- -- 58
2020-11-09 15:00:00 22.1 9 Oeste 19 Sudoeste 0 -- -- 51
2020-11-09 14:00:00 21.6 10 Oeste 23 Sudoeste 0 -- -- 54
2020-11-09 13:00:00 20.7 13 Oeste 27 Oeste 0 -- -- 56
2020-11-09 12:00:00 20.1 17 Oeste 28 Oeste 0 -- -- 55
2020-11-09 11:00:00 18.9 11 Sudoeste 26 Oeste 0 -- -- 61
2020-11-09 10:00:00 16.9 17 Oeste 27 Sudoeste 0 -- -- 66
2020-11-09 09:00:00 16.1 16 Oeste 29 Oeste 0 -- -- 68
2020-11-09 08:00:00 16.3 20 Oeste 30 Oeste 0 -- -- 67
2020-11-09 07:00:00 14.9 9 Sudoeste 16 Sudoeste 0 -- -- 74
2020-11-09 06:00:00 15 9 Sudoeste 16 Oeste 0 -- -- 74
2020-11-09 05:00:00 15.6 6 Sudeste 19 Oeste 0 -- -- 70
2020-11-09 04:00:00 16.1 10 Sudoeste 23 Sudoeste 0 -- -- 67
2020-11-09 03:00:00 17.2 13 Oeste 28 Oeste 0 -- -- 62
2020-11-09 02:00:00 17.7 15 Oeste 26 Sudoeste 0 -- -- 61
2020-11-09 01:00:00 17.5 17 Oeste 30 Sudoeste 0 -- -- 63
2020-11-09 00:00:00 17.2 17 Oeste 31 Oeste 0 -- -- 63
2020-11-08 23:00:00 18 18 Oeste 30 Oeste 0 -- -- 61
2020-11-08 22:00:00 17.5 9 Oeste 19 Oeste 0 -- -- 64
2020-11-08 21:00:00 17.1 12 Oeste 26 Oeste 0 -- -- 66
2020-11-08 20:00:00 17.6 18 Sudoeste 27 Sudoeste 0 -- -- 65
2020-11-08 19:00:00 18.2 14 Oeste 24 Oeste 0 -- -- 64
2020-11-08 18:00:00 18.2 12 Sudoeste 22 Oeste 0 -- -- 63
2020-11-08 17:00:00 19.1 13 Sudoeste 32 Sudoeste 0 -- -- 59
2020-11-08 16:00:00 21.3 17 Sudoeste 32 Sudoeste 0 -- -- 51
2020-11-08 15:00:00 21.7 15 Sudoeste 31 Sudoeste 0 -- -- 53
2020-11-08 14:00:00 21.3 18 Sudoeste 33 Oeste 0 -- -- 54
2020-11-08 13:00:00 21.5 16 Oeste 31 Oeste 0 -- -- 54
2020-11-08 12:00:00 20.9 21 Sudoeste 39 Sudoeste 0 -- -- 53
2020-11-08 11:00:00 20 20 Oeste 32 Oeste 0 -- -- 55
2020-11-08 10:00:00 17.5 17 Oeste 27 Oeste 0 -- -- 61
2020-11-08 09:00:00 15.9 13 Oeste 17 Oeste 0 -- -- 66
2020-11-08 08:00:00 15 5 Sudoeste 24 Oeste 0 -- -- 70
2020-11-08 07:00:00 15.7 14 Oeste 24 Oeste 0 -- -- 68
2020-11-08 06:00:00 15.4 17 Oeste 25 Oeste 0 -- -- 70
2020-11-08 05:00:00 15.1 15 Oeste 25 Oeste 0 -- -- 72
2020-11-08 04:00:00 13 12 Oeste 20 Oeste 0 -- -- 82
2020-11-08 03:00:00 14.2 11 Sudoeste 18 Sudoeste 0 -- -- 77
2020-11-08 02:00:00 13 10 Sudoeste 13 Sudoeste 0 -- -- 82
2020-11-08 01:00:00 13.2 8 Sudoeste 13 Sudoeste 0 -- -- 81
2020-11-08 00:00:00 12.7 9 Sudoeste 13 Sudoeste 0 -- -- 86
2020-11-07 23:00:00 13.2 7 Sudoeste 12 Sudoeste 0 -- -- 83
2020-11-07 22:00:00 13.5 9 Sudoeste 12 Sudoeste 0 -- -- 84
2020-11-07 21:00:00 13.6 8 Oeste 14 Sudoeste 0 -- -- 85
2020-11-07 20:00:00 14.5 9 Sudoeste 17 Oeste 0 -- -- 83
2020-11-07 19:00:00 16 10 Oeste 13 Oeste 0 -- -- 76
2020-11-07 18:00:00 17.4 5 Sudoeste 10 Sudoeste 0 -- -- 75
2020-11-07 17:00:00 19 6 Sudoeste 18 Sudoeste 0 -- -- 70
2020-11-07 16:00:00 18.9 12 Sudoeste 20 Sudoeste 0 -- -- 74
2020-11-07 15:00:00 18.5 14 Oeste 25 Oeste 0 -- -- 74
2020-11-07 14:00:00 17.7 13 Sudoeste 21 Sudoeste 0 -- -- 82
2020-11-07 13:00:00 16.5 4 Sur 8 Sudoeste 0 -- -- 96
2020-11-07 12:00:00 15.1 5 Sur 8 Sur 0 -- -- 98
2020-11-07 11:00:00 14.4 3 Sudoeste 7 Sudoeste 0 -- -- 98
2020-11-07 10:00:00 13.8 0 Calma 12 Sudoeste 0 -- -- 98
2020-11-07 09:00:00 13.7 6 Oeste 12 Noroeste 4.2 -- -- 97
2020-11-07 08:00:00 14.1 0 Calma 45 Noroeste 11.4 -- -- 96
2020-11-07 07:00:00 16.2 32 Noroeste 48 Oeste 4 -- -- 85
2020-11-07 06:00:00 19.7 2 Norte 14 Oeste 0 -- -- 68
2020-11-07 05:00:00 20.1 4 Sudoeste 12 Sur 0 -- -- 64
2020-11-07 04:00:00 19.8 4 Sur 19 Sudeste 0 -- -- 64
2020-11-07 03:00:00 20 10 Sur 26 Sur 0 -- -- 64
2020-11-07 02:00:00 20.1 11 Sur 22 Sudoeste 0 -- -- 64
2020-11-07 01:00:00 20.7 7 Sudoeste 42 Sudoeste 0 -- -- 60
2020-11-07 00:00:00 20.9 17 Sudoeste 40 Oeste 0 -- -- 61
2020-11-06 23:00:00 20.9 15 Sudoeste 32 Sudoeste 0 -- -- 61
2020-11-06 22:00:00 21.1 12 Sur 45 Sudoeste 0 -- -- 60
2020-11-06 21:00:00 21.3 22 Sudoeste 61 Sudoeste 0 -- -- 59
2020-11-06 20:00:00 21.3 20 Sudoeste 66 Sudoeste 0 -- -- 60
2020-11-06 19:00:00 21.5 31 Sudoeste 62 Sudoeste 0 -- -- 59
2020-11-06 18:00:00 21.1 24 Sudoeste 55 Sudoeste 0 -- -- 61
2020-11-06 17:00:00 21 24 Sudoeste 44 Sudoeste 0 -- -- 61
2020-11-06 16:00:00 20.9 18 Oeste 39 Oeste 0 -- -- 62
2020-11-06 15:00:00 21.3 13 Oeste 37 Oeste 0 -- -- 63
2020-11-06 14:00:00 21.7 15 Sudoeste 45 Sudoeste 0 -- -- 61
2020-11-06 13:00:00 21.1 16 Sudoeste 41 Sudoeste 0 -- -- 62
2020-11-06 12:00:00 21.4 19 Sudoeste 34 Sudoeste 0 -- -- 62
2020-11-06 11:00:00 21.9 7 Sudoeste 28 Sudoeste 0 -- -- 62
2020-11-06 10:00:00 20 19 Sudoeste 39 Sudoeste 0 -- -- 64
2020-11-06 09:00:00 18.8 15 Sudoeste 30 Sudoeste 0 -- -- 66
2020-11-06 08:00:00 18.6 18 Sudoeste 36 Sudoeste 0 -- -- 66
2020-11-06 07:00:00 18.4 21 Sudoeste 46 Sudoeste 0 -- -- 68
2020-11-06 06:00:00 17.9 17 Sudoeste 39 Sudoeste 0 -- -- 70
2020-11-06 05:00:00 17.5 15 Sudoeste 36 Sudoeste 0 -- -- 71
2020-11-06 04:00:00 15.6 7 Sudoeste 23 Sudoeste 0 -- -- 78
2020-11-06 03:00:00 14.5 4 Sudoeste 9 Oeste 0 -- -- 82
2020-11-06 02:00:00 14.8 3 Norte 13 Sudeste 0 -- -- 80
2020-11-06 01:00:00 13.3 3 Noroeste 16 Sur 0 -- -- 86
2020-11-06 00:00:00 12.4 4 Norte 9 Nordeste 0 -- -- 88
2020-11-05 23:00:00 12.6 3 Nordeste 13 Nordeste 0 -- -- 86
2020-11-05 22:00:00 12.3 5 Nordeste 11 Nordeste 0 -- -- 87
2020-11-05 21:00:00 11.4 7 Nordeste 11 Nordeste 0 -- -- 88
2020-11-05 20:00:00 11.9 8 Nordeste 13 Norte 0 -- -- 87
2020-11-05 19:00:00 12.1 5 Norte 11 Norte 0 -- -- 84
2020-11-05 18:00:00 12.8 6 Norte 9 Norte 0 -- -- 81
2020-11-05 17:00:00 13.9 4 Norte 19 Nordeste 0 -- -- 77
2020-11-05 16:00:00 14.7 10 Este 32 Este 0 -- -- 73
2020-11-05 15:00:00 16 14 Nordeste 25 Norte 0 -- -- 69
2020-11-05 14:00:00 15.8 11 Nordeste 20 Nordeste 0 -- -- 69
2020-11-05 13:00:00 16.3 10 Nordeste 18 Nordeste 0 -- -- 67
2020-11-05 12:00:00 14.9 8 Norte 13 Norte 0 -- -- 65
2020-11-05 11:00:00 11.9 5 Norte 7 Norte 0 -- -- 84
2020-11-05 10:00:00 8.5 4 Sudoeste 10 Sudoeste 0 -- -- 92
2020-11-05 09:00:00 7.1 3 Sudoeste 8 Sudoeste 0 -- -- 97
2020-11-05 08:00:00 5.7 5 Sudoeste 7 Sudoeste 0 -- -- 96
2020-11-05 07:00:00 6.2 3 Sudoeste 10 Oeste 0 -- -- 95
2020-11-05 06:00:00 7.2 5 Sudoeste 9 Sudoeste 0 -- -- 93
2020-11-05 05:00:00 8.8 3 Sudoeste 5 Sur 0 -- -- 88
2020-11-05 04:00:00 9.7 5 Oeste 8 Sudoeste 0 -- -- 83
2020-11-05 03:00:00 10.5 0 Calma 9 Sudeste 0 -- -- 80
2020-11-05 02:00:00 10.8 3 Sudoeste 12 Sudeste 0 -- -- 77
2020-11-05 01:00:00 11.1 3 Sudeste 9 Sudeste 0 -- -- 75
2020-11-05 00:00:00 11.6 4 Sur 25 Sudeste 0 -- -- 72
2020-11-04 23:00:00 11.8 10 Sudeste 32 Sur 0 -- -- 69
2020-11-04 22:00:00 11.9 8 Sudeste 34 Sudeste 0 -- -- 68
2020-11-04 21:00:00 12 8 Sudeste 26 Sudeste 0 -- -- 67
2020-11-04 20:00:00 11.7 6 Sudeste 18 Sudeste 0 -- -- 67
2020-11-04 19:00:00 11.7 4 Este 18 Sudeste 0 -- -- 67
2020-11-04 18:00:00 11.7 8 Sudeste 19 Sur 0 -- -- 67
2020-11-04 17:00:00 12 6 Sudeste 17 Sudeste 0 -- -- 66
2020-11-04 16:00:00 12.5 5 Sudeste 36 Este 0 -- -- 69
2020-11-04 15:00:00 13 14 Este 36 Este 0 -- -- 67
2020-11-04 14:00:00 12.5 9 Este 28 Este 0 -- -- 71
2020-11-04 13:00:00 13.5 11 Sudeste 28 Sudeste 0 -- -- 70
2020-11-04 12:00:00 11.8 10 Este 18 Este 0 -- -- 82
2020-11-04 11:00:00 11.3 2 Sudeste 6 Oeste 0 -- -- 96
2020-11-04 10:00:00 9.2 3 Sur 6 Sur 0 -- -- 100
2020-11-04 09:00:00 8.7 3 Sur 6 Sudoeste 0 -- -- 100
2020-11-04 08:00:00 7.8 5 Sudoeste 10 Sudoeste 0.8 -- -- 100
2020-11-04 07:00:00 7.9 2 Sur 12 Sudoeste 1.2 -- -- 100
2020-11-04 06:00:00 7.7 3 Sudoeste 7 Sudoeste 0.4 -- -- 100
2020-11-04 05:00:00 7.7 0 Calma 7 Sudoeste 0 -- -- 100
2020-11-04 04:00:00 7.8 5 Sur 9 Oeste 0.2 -- -- 100
2020-11-04 03:00:00 7.7 5 Sur 9 Oeste 0.2 -- -- 99
2020-11-04 02:00:00 7.8 3 Sur 13 Oeste 0 -- -- 99
2020-11-04 01:00:00 8.4 4 Sudoeste 8 Sudoeste 0.8 -- -- 99
2020-11-04 00:00:00 8.4 3 Sur 12 Sudoeste 0.4 -- -- 99
2020-11-03 23:00:00 8.5 4 Sur 12 Oeste 0.2 -- -- 98
2020-11-03 22:00:00 8.8 5 Sudoeste 7 Sudoeste 0 -- -- 97
2020-11-03 21:00:00 9.5 5 Sudoeste 13 Oeste 0 -- -- 96
2020-11-03 20:00:00 10.2 2 Noroeste 27 Noroeste 1.2 -- -- 93
2020-11-03 19:00:00 10.7 2 Noroeste 10 Sudoeste 0 -- -- 90
2020-11-03 18:00:00 11.8 5 Sudeste 19 Nordeste 0 -- -- 84
2020-11-03 17:00:00 13.2 6 Norte 13 Norte 0 -- -- 74
2020-11-03 16:00:00 13.4 6 Nordeste 17 Norte 0.2 -- -- 78
2020-11-03 15:00:00 13 7 Norte 25 Noroeste 0 -- -- 82
2020-11-03 14:00:00 12.4 9 Nordeste 34 Nordeste 0.2 -- -- 94
2020-11-03 13:00:00 12.1 14 Nordeste 30 Nordeste 2.6 -- -- 97
2020-11-03 12:00:00 12.8 4 Noroeste 27 Noroeste 0.4 -- -- 94
2020-11-03 11:00:00 12.4 4 Sudoeste 12 Sudoeste 0.8 -- -- 99
2020-11-03 10:00:00 12 6 Sudoeste 10 Sudoeste 0 -- -- 99
2020-11-03 09:00:00 11.6 5 Sudoeste 13 Sudoeste 0.2 -- -- 99
2020-11-03 08:00:00 11.3 4 Sur 12 Sur 0.2 -- -- 99
2020-11-03 07:00:00 11.5 5 Sudoeste 10 Nordeste 0.6 -- -- 99
2020-11-03 06:00:00 11.6 3 Sudoeste 10 Sudoeste 0 -- -- 99
2020-11-03 05:00:00 11.8 5 Sudoeste 11 Sudoeste 0.2 -- -- 99
2020-11-03 04:00:00 11.9 3 Sudoeste 6 Norte 0.6 -- -- 98
2020-11-03 03:00:00 12 4 Nordeste 11 Norte 1.2 -- -- 98
2020-11-03 02:00:00 12.2 4 Norte 8 Nordeste 3 -- -- 98
2020-11-03 01:00:00 12.5 3 Nordeste 5 Nordeste 0.6 -- -- 98
2020-11-03 00:00:00 12.7 3 Nordeste 11 Norte 0.6 -- -- 97
2020-11-02 23:00:00 13.1 0 Calma 8 Sudeste 0 -- -- 96
2020-11-02 22:00:00 13.3 2 Norte 13 Nordeste 0.6 -- -- 97
2020-11-02 21:00:00 13.7 4 Este 9 Este 0.4 -- -- 95
2020-11-02 20:00:00 14 6 Sudoeste 10 Sudoeste 0 -- -- 93
2020-11-02 19:00:00 14.1 6 Sudoeste 25 Norte 0 -- -- 91
2020-11-02 18:00:00 15.7 0 Calma 30 Norte 0 -- -- 83
2020-11-02 17:00:00 16.3 15 Norte 36 Nordeste 0 -- -- 79
2020-11-02 16:00:00 17.6 17 Nordeste 40 Nordeste 0 -- -- 84
2020-11-02 15:00:00 20.8 21 Norte 60 Norte 0 -- -- 74
2020-11-02 14:00:00 25.3 10 Sudoeste 24 Sudoeste 0 -- -- 55
2020-11-02 13:00:00 24.4 10 Sudoeste 24 Sudoeste 0 -- -- 59
2020-11-02 12:00:00 21.7 12 Sudoeste 22 Oeste 0 -- -- 64
2020-11-02 11:00:00 21.4 13 Sudoeste 23 Oeste 0 -- -- 65
2020-11-02 10:00:00 18.6 5 Sudoeste 9 Sudoeste 0 -- -- 78
2020-11-02 09:00:00 16.5 5 Sudoeste 14 Sudoeste 0 -- -- 82
2020-11-02 08:00:00 17.7 10 Oeste 17 Oeste 0 -- -- 77
2020-11-02 07:00:00 16.7 10 Oeste 14 Sudoeste 0 -- -- 83
2020-11-02 06:00:00 16.3 9 Sudoeste 15 Sudoeste 0 -- -- 83
2020-11-02 05:00:00 17 10 Sudoeste 14 Sudoeste 0 -- -- 81
2020-11-02 04:00:00 17.7 6 Sudoeste 11 Sudoeste 0 -- -- 77
2020-11-02 03:00:00 18.1 6 Sur 10 Sudoeste 0 -- -- 76
2020-11-02 02:00:00 19.3 4 Sur 12 Sur 0 -- -- 71
2020-11-02 01:00:00 19.8 5 Sur 8 Sur 0 -- -- 70
2020-11-02 00:00:00 20.1 4 Sur 15 Sur 0 -- -- 69
2020-11-01 23:00:00 20.3 7 Sudoeste 12 Sur 0 -- -- 69
2020-11-01 22:00:00 20.3 5 Sudeste 28 Oeste 0 -- -- 68
2020-11-01 21:00:00 19.8 5 Sur 18 Sudoeste 0 -- -- 70
2020-11-01 20:00:00 20.6 13 Sudoeste 23 Sudoeste 0 -- -- 67
2020-11-01 19:00:00 20.4 8 Sur 15 Sudoeste 0 -- -- 71
2020-11-01 18:00:00 21.5 6 Sudoeste 13 Oeste 0 -- -- 70
2020-11-01 17:00:00 23.4 9 Oeste 19 Oeste 0 -- -- 64
2020-11-01 16:00:00 24.8 8 Sudoeste 13 Oeste 0 -- -- 61
2020-11-01 15:00:00 24.6 6 Sudoeste 25 Sudoeste 0 -- -- 61
2020-11-01 14:00:00 24.8 11 Sudoeste 24 Oeste 0 -- -- 58
2020-11-01 13:00:00 24.4 13 Sudoeste 26 Oeste 0 -- -- 58
2020-11-01 12:00:00 23.9 13 Sudoeste 27 Oeste 0 -- -- 58
2020-11-01 11:00:00 22.6 6 Sudoeste 15 Sudoeste 0 -- -- 64
2020-11-01 10:00:00 19.8 10 Sudoeste 16 Oeste 0 -- -- 70
2020-11-01 09:00:00 18.1 3 Sur 13 Sudoeste 0 -- -- 72
2020-11-01 08:00:00 18 6 Sudoeste 10 Sudoeste 0 -- -- 69
2020-11-01 07:00:00 18.2 7 Sudoeste 13 Sudoeste 0 -- -- 69
2020-11-01 06:00:00 17.9 6 Sudoeste 14 Sudoeste 0 -- -- 70
2020-11-01 05:00:00 18.1 6 Sudoeste 17 Sudoeste 0 -- -- 68
2020-11-01 04:00:00 17.6 9 Sudoeste 14 Sudoeste 0 -- -- 71
2020-11-01 03:00:00 17.8 7 Sudoeste 15 Sudoeste 0 -- -- 70
2020-11-01 02:00:00 17.1 11 Sudoeste 16 Sudoeste 0 -- -- 73
2020-11-01 01:00:00 15 7 Sudoeste 13 Sudoeste 0 -- -- 82
2020-11-01 00:00:00 14.3 8 Sudoeste 12 Sudoeste 0 -- -- 84
2020-10-31 23:00:00 15.7 10 Sudoeste 13 Sudoeste 0 -- -- 78
2020-10-31 22:00:00 17.2 5 Sudoeste 10 Sudoeste 0 -- -- 72
2020-10-31 21:00:00 16.3 5 Sudoeste 9 Sudoeste 0 -- -- 78
2020-10-31 20:00:00 17 8 Sudoeste 10 Sudoeste 0 -- -- 78
2020-10-31 19:00:00 19.7 6 Sur 11 Sudoeste 0 -- -- 66
2020-10-31 18:00:00 22.2 6 Sudoeste 13 Sudoeste 0 -- -- 56
2020-10-31 17:00:00 24.4 9 Oeste 18 Oeste 0 -- -- 52
2020-10-31 16:00:00 25.6 8 Oeste 27 Oeste 0 -- -- 51
2020-10-31 15:00:00 25.4 12 Oeste 26 Oeste 0 -- -- 49
2020-10-31 14:00:00 24.3 13 Sudoeste 27 Oeste 0 -- -- 51
2020-10-31 13:00:00 24.5 13 Sudoeste 25 Sudoeste 0 -- -- 47
2020-10-31 12:00:00 23.1 16 Sudoeste 35 Sudoeste 0 -- -- 52
2020-10-31 11:00:00 22.5 12 Sudoeste 24 Sudoeste 0 -- -- 53
2020-10-31 10:00:00 20.2 7 Sudoeste 20 Sudoeste 0 -- -- 61
2020-10-31 09:00:00 16.7 9 Sudoeste 15 Sudoeste 0 -- -- 69
2020-10-31 08:00:00 14 9 Sudoeste 15 Sudoeste 0 -- -- 79
2020-10-31 07:00:00 13.6 8 Sudoeste 11 Sudoeste 0 -- -- 84
2020-10-31 06:00:00 12.2 5 Sur 16 Sur 0 -- -- 91
2020-10-31 05:00:00 9.9 3 Sudoeste 15 Sudoeste 0 -- -- 100
2020-10-31 04:00:00 9.1 8 Sudoeste 15 Sudoeste 0 -- -- 100
2020-10-31 03:00:00 8.9 10 Sudoeste 12 Sudoeste 0 -- -- 100
2020-10-31 02:00:00 9.2 3 Sudoeste 10 Sudoeste 0 -- -- 100
2020-10-31 01:00:00 9.8 9 Sudoeste 15 Sudoeste 0 -- -- 99
2020-10-31 00:00:00 9.9 11 Sudoeste 13 Sudoeste 0 -- -- 99
2020-10-30 23:00:00 10.4 7 Sudoeste 9 Sudoeste 0 -- -- 99
2020-10-30 22:00:00 10.8 5 Oeste 10 Sudoeste 0 -- -- 98
2020-10-30 21:00:00 11.7 6 Sudoeste 8 Sudoeste 0 -- -- 97
2020-10-30 20:00:00 13 0 Calma 5 Nordeste 0 -- -- 96
2020-10-30 19:00:00 13.9 4 Nordeste 13 Norte 0 -- -- 94
2020-10-30 18:00:00 15 10 Norte 16 Norte 0 -- -- 91
2020-10-30 17:00:00 16.9 11 Norte 19 Norte 0 -- -- 83
2020-10-30 16:00:00 18.1 15 Norte 21 Norte 0 -- -- 76
2020-10-30 15:00:00 18.7 14 Nordeste 24 Nordeste 0 -- -- 75
2020-10-30 14:00:00 18.9 13 Nordeste 22 Norte 0 -- -- 76
2020-10-30 13:00:00 18.8 14 Norte 21 Norte 0 -- -- 78
2020-10-30 12:00:00 18.1 3 Norte 5 Norte 0 -- -- 74
2020-10-30 11:00:00 15.8 2 Sudoeste 5 Sudoeste 0 -- -- 85
2020-10-30 10:00:00 12 2 Sudoeste 9 Sudoeste 0.2 -- -- 100
2020-10-30 09:00:00 8.6 6 Sudoeste 10 Sudoeste 0 -- -- 100
2020-10-30 08:00:00 6.6 5 Sudoeste 9 Sudoeste 0 -- -- 100
2020-10-30 07:00:00 6.8 6 Sudoeste 10 Oeste 0 -- -- 100
2020-10-30 06:00:00 7 5 Sudoeste 6 Oeste 0 -- -- 99
2020-10-30 05:00:00 7.5 5 Sudoeste 10 Sudoeste 0 -- -- 99
2020-10-30 04:00:00 7.8 7 Sudoeste 10 Sudoeste 0 -- -- 99
2020-10-30 03:00:00 8.2 6 Sudoeste 10 Sudoeste 0 -- -- 99
2020-10-30 02:00:00 8.4 7 Sudoeste 10 Sudoeste 0 -- -- 98
2020-10-30 01:00:00 8.9 7 Sudoeste 9 Sudoeste 0 -- -- 98
2020-10-30 00:00:00 9.3 7 Sudoeste 9 Sudoeste 0 -- -- 98
2020-10-29 23:00:00 10.3 0 Calma 8 Sudoeste 0 -- -- 97
2020-10-29 22:00:00 10.7 6 Sudoeste 9 Sudoeste 0 -- -- 95
2020-10-29 21:00:00 12 3 Sudoeste 8 Oeste 0 -- -- 94
2020-10-29 20:00:00 13.4 0 Calma 5 Este 0 -- -- 89
2020-10-29 19:00:00 14.8 4 Este 11 Nordeste 0 -- -- 81
2020-10-29 18:00:00 16 8 Nordeste 19 Nordeste 0 -- -- 77
2020-10-29 17:00:00 18.3 10 Nordeste 21 Nordeste 0 -- -- 68
2020-10-29 16:00:00 18.3 14 Este 26 Este 0 -- -- 67
2020-10-29 15:00:00 19.6 10 Este 18 Este 0 -- -- 63
2020-10-29 14:00:00 21.7 2 Noroeste 16 Sudeste 0 -- -- 56
2020-10-29 13:00:00 20.3 4 Sur 15 Sudeste 0 -- -- 59
2020-10-29 12:00:00 19 5 Sur 11 Sudoeste 0 -- -- 65
2020-10-29 11:00:00 16.7 5 Sudoeste 11 Sudoeste 0 -- -- 75
2020-10-29 10:00:00 13.5 8 Sudoeste 13 Sudoeste 0 -- -- 86
2020-10-29 09:00:00 10.3 2 Norte 12 Sudoeste 0 -- -- 95
2020-10-29 08:00:00 9 9 Sudoeste 14 Sudoeste 0 -- -- 97
2020-10-29 07:00:00 10 3 Oeste 7 Oeste 0 -- -- 96
2020-10-29 06:00:00 10.3 6 Sudoeste 13 Sudoeste 0 -- -- 94
2020-10-29 05:00:00 10.9 6 Sudoeste 13 Sudoeste 0 -- -- 93
2020-10-29 04:00:00 11.1 4 Sudoeste 8 Sudoeste 0 -- -- 94
2020-10-29 03:00:00 10.9 4 Sudoeste 8 Sudoeste 0 -- -- 94
2020-10-29 02:00:00 10.6 2 Sur 13 Sudoeste 0 -- -- 95
2020-10-29 01:00:00 10.5 8 Sudoeste 10 Sudoeste 0 -- -- 95
2020-10-29 00:00:00 10.6 0 Calma 4 Sudoeste 0 -- -- 92
2020-10-28 23:00:00 10.9 6 Sudoeste 12 Sudoeste 0 -- -- 93
2020-10-28 22:00:00 11.5 5 Sudoeste 8 Oeste 0 -- -- 93
2020-10-28 21:00:00 12.3 6 Sudoeste 11 Sudoeste 0 -- -- 91
2020-10-28 20:00:00 13.7 5 Sur 6 Sur 0 -- -- 87
2020-10-28 19:00:00 15.2 4 Sudoeste 8 Sudoeste 0 -- -- 80
2020-10-28 18:00:00 16 4 Sudoeste 8 Oeste 0 -- -- 78
2020-10-28 17:00:00 16.9 4 Oeste 9 Norte 0 -- -- 71
2020-10-28 16:00:00 17 6 Oeste 18 Oeste 0 -- -- 69
2020-10-28 15:00:00 17.2 8 Norte 16 Norte 0 -- -- 69
2020-10-28 14:00:00 17.8 5 Norte 21 Norte 0 -- -- 66
2020-10-28 13:00:00 17.2 9 Norte 22 Norte 0 -- -- 70
2020-10-28 12:00:00 16.8 6 Sudoeste 12 Oeste 0 -- -- 85
2020-10-28 11:00:00 15.5 4 Sudoeste 8 Sudoeste 0 -- -- 95
2020-10-28 10:00:00 14.6 7 Sudoeste 9 Sudoeste 0 -- -- 98
2020-10-28 09:00:00 13.7 5 Sudoeste 10 Oeste 0.2 -- -- 98
2020-10-28 08:00:00 13.7 6 Sudoeste 10 Sudoeste 0 -- -- 97
2020-10-28 07:00:00 13.6 4 Sudoeste 8 Norte 0 -- -- 97
2020-10-28 06:00:00 13.3 4 Nordeste 9 Nordeste 0 -- -- 95
2020-10-28 05:00:00 13.3 3 Oeste 11 Oeste 0 -- -- 95
2020-10-28 04:00:00 13.2 3 Oeste 12 Sudoeste 0 -- -- 94
2020-10-28 03:00:00 14 0 Calma 9 Norte 0 -- -- 94
2020-10-28 02:00:00 14.1 4 Nordeste 7 Sudoeste 0 -- -- 89
2020-10-28 01:00:00 15.2 6 Sudoeste 10 Oeste 0 -- -- 84
2020-10-28 00:00:00 16.6 6 Noroeste 16 Noroeste 0 -- -- 79